sensor_id;sensor_type;location;lat;lon;timestamp;temperature;humidity
51793;DHT22;37850;53.178;6.376;2023-07-20T00:00:49;16.30;99.90
51793;DHT22;37850;53.178;6.376;2023-07-20T00:03:19;16.30;99.90
51793;DHT22;37850;53.178;6.376;2023-07-20T00:05:49;16.30;99.90
51793;DHT22;37850;53.178;6.376;2023-07-20T00:08:16;16.20;99.90
51793;DHT22;37850;53.178;6.376;2023-07-20T00:10:42;16.20;99.90
51793;DHT22;37850;53.178;6.376;2023-07-20T00:13:08;16.20;99.90
51793;DHT22;37850;53.178;6.376;2023-07-20T00:15:34;16.20;99.90
51793;DHT22;37850;53.178;6.376;2023-07-20T00:18:00;16.20;99.90
51793;DHT22;37850;53.178;6.376;2023-07-20T00:20:25;16.20;99.90
51793;DHT22;37850;53.178;6.376;2023-07-20T00:22:51;16.20;99.90
51793;DHT22;37850;53.178;6.376;2023-07-20T00:25:18;16.20;99.90
51793;DHT22;37850;53.178;6.376;2023-07-20T00:27:44;16.20;99.90
51793;DHT22;37850;53.178;6.376;2023-07-20T00:30:10;16.10;99.90
51793;DHT22;37850;53.178;6.376;2023-07-20T00:32:36;16.10;99.90
51793;DHT22;37850;53.178;6.376;2023-07-20T00:35:01;16.10;99.90
51793;DHT22;37850;53.178;6.376;2023-07-20T00:37:27;16.10;99.90
51793;DHT22;37850;53.178;6.376;2023-07-20T00:39:54;16.00;99.90
51793;DHT22;37850;53.178;6.376;2023-07-20T00:42:20;16.00;99.90
51793;DHT22;37850;53.178;6.376;2023-07-20T00:44:46;16.00;99.90
51793;DHT22;37850;53.178;6.376;2023-07-20T00:47:11;16.00;99.90
51793;DHT22;37850;53.178;6.376;2023-07-20T00:49:41;15.90;99.90
51793;DHT22;37850;53.178;6.376;2023-07-20T00:52:08;15.90;99.90
51793;DHT22;37850;53.178;6.376;2023-07-20T00:54:37;15.90;99.90
51793;DHT22;37850;53.178;6.376;2023-07-20T00:57:07;15.80;99.90
51793;DHT22;37850;53.178;6.376;2023-07-20T00:59:34;15.80;99.90
51793;DHT22;37850;53.178;6.376;2023-07-20T01:02:01;15.80;99.90
51793;DHT22;37850;53.178;6.376;2023-07-20T01:04:28;15.70;99.90
51793;DHT22;37850;53.178;6.376;2023-07-20T01:07:12;15.70;99.90
51793;DHT22;37850;53.178;6.376;2023-07-20T01:09:48;15.60;99.90
51793;DHT22;37850;53.178;6.376;2023-07-20T01:12:33;15.60;99.90
51793;DHT22;37850;53.178;6.376;2023-07-20T01:15:01;15.50;99.90
51793;DHT22;37850;53.178;6.376;2023-07-20T01:17:27;15.50;99.90
51793;DHT22;37850;53.178;6.376;2023-07-20T01:19:53;15.50;99.90
51793;DHT22;37850;53.178;6.376;2023-07-20T01:33:20;15.30;99.90
51793;DHT22;37850;53.178;6.376;2023-07-20T01:35:52;15.20;99.90
51793;DHT22;37850;53.178;6.376;2023-07-20T01:38:19;15.20;99.90
51793;DHT22;37850;53.178;6.376;2023-07-20T01:40:45;15.10;99.90
51793;DHT22;37850;53.178;6.376;2023-07-20T01:43:12;15.10;99.90
51793;DHT22;37850;53.178;6.376;2023-07-20T01:45:38;15.00;99.90
51793;DHT22;37850;53.178;6.376;2023-07-20T01:48:05;15.00;99.90
51793;DHT22;37850;53.178;6.376;2023-07-20T01:50:30;14.90;99.90
51793;DHT22;37850;53.178;6.376;2023-07-20T01:52:56;14.90;99.90
51793;DHT22;37850;53.178;6.376;2023-07-20T01:55:22;14.80;99.90
51793;DHT22;37850;53.178;6.376;2023-07-20T01:57:48;14.80;99.90
51793;DHT22;37850;53.178;6.376;2023-07-20T02:00:13;14.70;99.90
51793;DHT22;37850;53.178;6.376;2023-07-20T02:02:41;14.70;99.90
51793;DHT22;37850;53.178;6.376;2023-07-20T02:05:07;14.70;99.90
51793;DHT22;37850;53.178;6.376;2023-07-20T02:07:33;14.70;99.90
51793;DHT22;37850;53.178;6.376;2023-07-20T02:09:58;14.60;99.90
51793;DHT22;37850;53.178;6.376;2023-07-20T02:12:24;14.60;99.90
51793;DHT22;37850;53.178;6.376;2023-07-20T02:14:50;14.60;99.90
51793;DHT22;37850;53.178;6.376;2023-07-20T02:17:16;14.50;99.90
51793;DHT22;37850;53.178;6.376;2023-07-20T02:19:42;14.50;99.90
51793;DHT22;37850;53.178;6.376;2023-07-20T02:22:08;14.40;99.90
51793;DHT22;37850;53.178;6.376;2023-07-20T02:24:34;14.40;99.90
51793;DHT22;37850;53.178;6.376;2023-07-20T02:27:00;14.30;99.90
51793;DHT22;37850;53.178;6.376;2023-07-20T02:29:25;14.30;99.90
51793;DHT22;37850;53.178;6.376;2023-07-20T02:31:51;14.20;99.90
51793;DHT22;37850;53.178;6.376;2023-07-20T02:34:17;14.20;99.90
51793;DHT22;37850;53.178;6.376;2023-07-20T02:36:42;14.20;99.90
51793;DHT22;37850;53.178;6.376;2023-07-20T02:39:09;14.20;99.90
51793;DHT22;37850;53.178;6.376;2023-07-20T02:41:35;14.10;99.90
51793;DHT22;37850;53.178;6.376;2023-07-20T02:44:01;14.10;99.90
51793;DHT22;37850;53.178;6.376;2023-07-20T02:46:27;14.10;99.90
51793;DHT22;37850;53.178;6.376;2023-07-20T02:48:55;14.10;99.90
51793;DHT22;37850;53.178;6.376;2023-07-20T02:51:21;14.10;99.90
51793;DHT22;37850;53.178;6.376;2023-07-20T02:53:47;14.00;99.90
51793;DHT22;37850;53.178;6.376;2023-07-20T02:56:12;14.00;99.90
51793;DHT22;37850;53.178;6.376;2023-07-20T02:58:41;14.00;99.90
51793;DHT22;37850;53.178;6.376;2023-07-20T03:01:09;14.00;99.90
51793;DHT22;37850;53.178;6.376;2023-07-20T03:03:37;14.00;99.90
51793;DHT22;37850;53.178;6.376;2023-07-20T03:06:05;13.90;99.90
51793;DHT22;37850;53.178;6.376;2023-07-20T03:08:31;13.90;99.90
51793;DHT22;37850;53.178;6.376;2023-07-20T03:10:56;13.90;99.90
51793;DHT22;37850;53.178;6.376;2023-07-20T03:13:22;13.80;99.90
51793;DHT22;37850;53.178;6.376;2023-07-20T03:15:49;13.80;99.90
51793;DHT22;37850;53.178;6.376;2023-07-20T03:18:15;13.80;99.90
51793;DHT22;37850;53.178;6.376;2023-07-20T03:20:41;13.70;99.90
51793;DHT22;37850;53.178;6.376;2023-07-20T03:23:06;13.70;99.90
51793;DHT22;37850;53.178;6.376;2023-07-20T03:25:32;13.60;99.90
51793;DHT22;37850;53.178;6.376;2023-07-20T03:27:59;13.60;99.90
51793;DHT22;37850;53.178;6.376;2023-07-20T03:30:24;13.60;99.90
51793;DHT22;37850;53.178;6.376;2023-07-20T03:32:51;13.60;99.90
51793;DHT22;37850;53.178;6.376;2023-07-20T03:35:16;13.50;99.90
51793;DHT22;37850;53.178;6.376;2023-07-20T03:37:42;13.50;99.90
51793;DHT22;37850;53.178;6.376;2023-07-20T03:40:09;13.40;99.90
51793;DHT22;37850;53.178;6.376;2023-07-20T03:42:35;13.40;99.90
51793;DHT22;37850;53.178;6.376;2023-07-20T03:45:01;13.40;99.90
51793;DHT22;37850;53.178;6.376;2023-07-20T03:47:28;13.40;99.90
51793;DHT22;37850;53.178;6.376;2023-07-20T03:49:54;13.30;99.90
51793;DHT22;37850;53.178;6.376;2023-07-20T03:52:20;13.30;99.90
51793;DHT22;37850;53.178;6.376;2023-07-20T03:54:45;13.30;99.90
51793;DHT22;37850;53.178;6.376;2023-07-20T03:57:11;13.30;99.90
51793;DHT22;37850;53.178;6.376;2023-07-20T03:59:38;13.20;99.90
51793;DHT22;37850;53.178;6.376;2023-07-20T04:02:04;13.20;99.90
51793;DHT22;37850;53.178;6.376;2023-07-20T04:04:31;13.20;99.90
51793;DHT22;37850;53.178;6.376;2023-07-20T04:06:57;13.10;99.90
51793;DHT22;37850;53.178;6.376;2023-07-20T04:09:22;13.10;99.90
51793;DHT22;37850;53.178;6.376;2023-07-20T04:11:48;13.10;99.90
51793;DHT22;37850;53.178;6.376;2023-07-20T04:14:14;13.10;99.90
51793;DHT22;37850;53.178;6.376;2023-07-20T04:16:39;13.10;99.90
51793;DHT22;37850;53.178;6.376;2023-07-20T04:19:05;13.10;99.90
51793;DHT22;37850;53.178;6.376;2023-07-20T04:21:31;13.10;99.90
51793;DHT22;37850;53.178;6.376;2023-07-20T04:23:56;13.10;99.90
51793;DHT22;37850;53.178;6.376;2023-07-20T04:26:23;13.00;99.90
51793;DHT22;37850;53.178;6.376;2023-07-20T04:28:48;13.10;99.90
51793;DHT22;37850;53.178;6.376;2023-07-20T04:31:16;13.00;99.90
51793;DHT22;37850;53.178;6.376;2023-07-20T04:33:42;13.00;99.90
51793;DHT22;37850;53.178;6.376;2023-07-20T04:36:07;13.00;99.90
51793;DHT22;37850;53.178;6.376;2023-07-20T04:38:35;13.00;99.90
51793;DHT22;37850;53.178;6.376;2023-07-20T04:41:01;13.00;99.90
51793;DHT22;37850;53.178;6.376;2023-07-20T04:43:29;13.00;99.90
51793;DHT22;37850;53.178;6.376;2023-07-20T04:45:54;13.00;99.90
51793;DHT22;37850;53.178;6.376;2023-07-20T04:48:20;13.00;99.90
51793;DHT22;37850;53.178;6.376;2023-07-20T04:50:46;13.10;99.90
51793;DHT22;37850;53.178;6.376;2023-07-20T04:53:12;13.30;99.90
51793;DHT22;37850;53.178;6.376;2023-07-20T04:55:39;13.40;99.90
51793;DHT22;37850;53.178;6.376;2023-07-20T04:58:05;13.50;99.90
51793;DHT22;37850;53.178;6.376;2023-07-20T05:00:32;13.40;99.90
51793;DHT22;37850;53.178;6.376;2023-07-20T05:02:58;13.40;99.90
51793;DHT22;37850;53.178;6.376;2023-07-20T05:05:24;13.40;99.90
51793;DHT22;37850;53.178;6.376;2023-07-20T05:07:49;13.40;99.90
51793;DHT22;37850;53.178;6.376;2023-07-20T05:10:17;13.40;99.90
51793;DHT22;37850;53.178;6.376;2023-07-20T05:12:43;13.40;99.90
51793;DHT22;37850;53.178;6.376;2023-07-20T05:15:09;13.50;99.90
51793;DHT22;37850;53.178;6.376;2023-07-20T05:17:35;13.80;99.90
51793;DHT22;37850;53.178;6.376;2023-07-20T05:20:00;14.20;99.90
51793;DHT22;37850;53.178;6.376;2023-07-20T05:22:26;14.60;99.90
51793;DHT22;37850;53.178;6.376;2023-07-20T05:24:52;15.00;99.90
51793;DHT22;37850;53.178;6.376;2023-07-20T05:27:18;15.30;99.90
51793;DHT22;37850;53.178;6.376;2023-07-20T05:29:45;15.40;99.90
51793;DHT22;37850;53.178;6.376;2023-07-20T05:32:11;15.30;99.90
51793;DHT22;37850;53.178;6.376;2023-07-20T05:34:37;15.20;99.90
51793;DHT22;37850;53.178;6.376;2023-07-20T05:37:03;15.10;99.90
51793;DHT22;37850;53.178;6.376;2023-07-20T05:39:28;15.00;99.90
51793;DHT22;37850;53.178;6.376;2023-07-20T05:41:54;14.90;99.90
51793;DHT22;37850;53.178;6.376;2023-07-20T05:44:20;14.80;99.90
51793;DHT22;37850;53.178;6.376;2023-07-20T05:46:45;14.70;99.90
51793;DHT22;37850;53.178;6.376;2023-07-20T05:49:12;14.70;99.90
51793;DHT22;37850;53.178;6.376;2023-07-20T05:51:37;14.70;99.90
51793;DHT22;37850;53.178;6.376;2023-07-20T05:54:03;14.60;99.90
51793;DHT22;37850;53.178;6.376;2023-07-20T05:56:29;14.60;99.90
51793;DHT22;37850;53.178;6.376;2023-07-20T05:58:54;14.60;99.90
51793;DHT22;37850;53.178;6.376;2023-07-20T06:01:20;14.60;99.90
51793;DHT22;37850;53.178;6.376;2023-07-20T06:03:46;14.60;99.90
51793;DHT22;37850;53.178;6.376;2023-07-20T06:06:12;14.60;99.90
51793;DHT22;37850;53.178;6.376;2023-07-20T06:08:38;14.60;99.90
51793;DHT22;37850;53.178;6.376;2023-07-20T06:11:04;14.60;99.90
51793;DHT22;37850;53.178;6.376;2023-07-20T06:13:30;14.60;99.90
51793;DHT22;37850;53.178;6.376;2023-07-20T06:15:56;14.60;99.90
51793;DHT22;37850;53.178;6.376;2023-07-20T06:18:25;14.70;99.90
51793;DHT22;37850;53.178;6.376;2023-07-20T06:20:51;14.70;99.90
51793;DHT22;37850;53.178;6.376;2023-07-20T06:23:19;14.70;99.90
51793;DHT22;37850;53.178;6.376;2023-07-20T06:25:45;14.70;99.90
51793;DHT22;37850;53.178;6.376;2023-07-20T06:28:14;14.90;99.90
51793;DHT22;37850;53.178;6.376;2023-07-20T06:30:40;15.20;99.90
51793;DHT22;37850;53.178;6.376;2023-07-20T06:33:06;15.30;99.90
51793;DHT22;37850;53.178;6.376;2023-07-20T06:35:33;15.40;99.90
51793;DHT22;37850;53.178;6.376;2023-07-20T06:37:59;15.40;99.90
51793;DHT22;37850;53.178;6.376;2023-07-20T06:40:26;15.50;99.90
51793;DHT22;37850;53.178;6.376;2023-07-20T06:42:52;15.60;99.90
51793;DHT22;37850;53.178;6.376;2023-07-20T06:45:18;15.80;99.90
51793;DHT22;37850;53.178;6.376;2023-07-20T06:47:43;15.90;99.90
51793;DHT22;37850;53.178;6.376;2023-07-20T06:50:10;15.90;99.90
51793;DHT22;37850;53.178;6.376;2023-07-20T06:52:36;15.90;99.90
51793;DHT22;37850;53.178;6.376;2023-07-20T06:55:03;15.80;99.90
51793;DHT22;37850;53.178;6.376;2023-07-20T06:57:29;15.80;99.90
51793;DHT22;37850;53.178;6.376;2023-07-20T06:59:54;15.80;99.90
51793;DHT22;37850;53.178;6.376;2023-07-20T07:02:20;15.80;99.90
51793;DHT22;37850;53.178;6.376;2023-07-20T07:04:45;15.80;99.90
51793;DHT22;37850;53.178;6.376;2023-07-20T07:07:14;15.80;99.90
51793;DHT22;37850;53.178;6.376;2023-07-20T07:09:41;15.80;99.90
51793;DHT22;37850;53.178;6.376;2023-07-20T07:12:07;15.80;99.90
51793;DHT22;37850;53.178;6.376;2023-07-20T07:14:33;15.80;99.90
51793;DHT22;37850;53.178;6.376;2023-07-20T07:16:59;15.90;99.90
51793;DHT22;37850;53.178;6.376;2023-07-20T07:19:25;15.90;99.90
51793;DHT22;37850;53.178;6.376;2023-07-20T07:21:50;16.00;99.90
51793;DHT22;37850;53.178;6.376;2023-07-20T07:24:16;16.10;99.90
51793;DHT22;37850;53.178;6.376;2023-07-20T07:26:42;16.10;99.90
51793;DHT22;37850;53.178;6.376;2023-07-20T07:29:08;16.00;99.90
51793;DHT22;37850;53.178;6.376;2023-07-20T07:31:36;16.10;99.90
51793;DHT22;37850;53.178;6.376;2023-07-20T07:34:03;16.00;99.90
51793;DHT22;37850;53.178;6.376;2023-07-20T07:36:28;16.10;99.90
51793;DHT22;37850;53.178;6.376;2023-07-20T07:38:54;16.30;99.90
51793;DHT22;37850;53.178;6.376;2023-07-20T07:41:20;16.40;99.90
51793;DHT22;37850;53.178;6.376;2023-07-20T07:43:46;16.70;99.90
51793;DHT22;37850;53.178;6.376;2023-07-20T07:46:12;16.80;99.90
51793;DHT22;37850;53.178;6.376;2023-07-20T07:48:39;16.90;99.90
51793;DHT22;37850;53.178;6.376;2023-07-20T07:51:04;17.00;99.90
51793;DHT22;37850;53.178;6.376;2023-07-20T07:53:30;17.00;99.90
51793;DHT22;37850;53.178;6.376;2023-07-20T07:55:56;17.10;99.90
51793;DHT22;37850;53.178;6.376;2023-07-20T07:58:21;17.20;99.90
51793;DHT22;37850;53.178;6.376;2023-07-20T08:00:47;17.20;99.90
51793;DHT22;37850;53.178;6.376;2023-07-20T08:03:13;17.20;99.90
51793;DHT22;37850;53.178;6.376;2023-07-20T08:05:39;17.20;99.90
51793;DHT22;37850;53.178;6.376;2023-07-20T08:08:06;17.20;99.90
51793;DHT22;37850;53.178;6.376;2023-07-20T08:10:31;17.20;99.90
51793;DHT22;37850;53.178;6.376;2023-07-20T08:12:57;17.30;99.90
51793;DHT22;37850;53.178;6.376;2023-07-20T08:15:23;17.30;99.90
51793;DHT22;37850;53.178;6.376;2023-07-20T08:17:49;17.40;99.90
51793;DHT22;37850;53.178;6.376;2023-07-20T08:20:17;17.50;99.90
51793;DHT22;37850;53.178;6.376;2023-07-20T08:22:43;17.50;99.90
51793;DHT22;37850;53.178;6.376;2023-07-20T08:25:09;17.50;99.90
51793;DHT22;37850;53.178;6.376;2023-07-20T08:27:36;17.40;99.90
51793;DHT22;37850;53.178;6.376;2023-07-20T08:30:02;17.40;99.90
51793;DHT22;37850;53.178;6.376;2023-07-20T08:32:29;17.40;99.90
51793;DHT22;37850;53.178;6.376;2023-07-20T08:34:55;17.50;99.90
51793;DHT22;37850;53.178;6.376;2023-07-20T08:37:21;17.60;99.90
51793;DHT22;37850;53.178;6.376;2023-07-20T08:39:47;17.80;99.90
51793;DHT22;37850;53.178;6.376;2023-07-20T08:42:14;17.90;99.90
51793;DHT22;37850;53.178;6.376;2023-07-20T08:44:42;18.00;99.90
51793;DHT22;37850;53.178;6.376;2023-07-20T08:47:09;17.90;99.90
51793;DHT22;37850;53.178;6.376;2023-07-20T08:49:36;17.90;99.90
51793;DHT22;37850;53.178;6.376;2023-07-20T08:52:04;18.00;99.90
51793;DHT22;37850;53.178;6.376;2023-07-20T08:54:31;18.10;99.90
51793;DHT22;37850;53.178;6.376;2023-07-20T08:57:04;18.20;99.90
51793;DHT22;37850;53.178;6.376;2023-07-20T08:59:31;18.30;99.90
51793;DHT22;37850;53.178;6.376;2023-07-20T09:01:58;18.40;99.90
51793;DHT22;37850;53.178;6.376;2023-07-20T09:04:24;18.50;99.90
51793;DHT22;37850;53.178;6.376;2023-07-20T09:06:50;18.50;99.90
51793;DHT22;37850;53.178;6.376;2023-07-20T09:09:17;18.50;99.90
51793;DHT22;37850;53.178;6.376;2023-07-20T09:11:43;18.50;99.90
51793;DHT22;37850;53.178;6.376;2023-07-20T09:14:09;18.50;99.90
51793;DHT22;37850;53.178;6.376;2023-07-20T09:16:52;18.50;99.90
51793;DHT22;37850;53.178;6.376;2023-07-20T09:19:19;18.60;99.90
51793;DHT22;37850;53.178;6.376;2023-07-20T09:21:46;18.60;99.90
51793;DHT22;37850;53.178;6.376;2023-07-20T09:24:12;18.70;99.90
51793;DHT22;37850;53.178;6.376;2023-07-20T09:26:42;18.90;99.90
51793;DHT22;37850;53.178;6.376;2023-07-20T09:29:09;19.00;99.90
51793;DHT22;37850;53.178;6.376;2023-07-20T09:31:36;19.00;99.90
51793;DHT22;37850;53.178;6.376;2023-07-20T09:34:01;19.00;99.90
51793;DHT22;37850;53.178;6.376;2023-07-20T09:36:28;18.90;99.90
51793;DHT22;37850;53.178;6.376;2023-07-20T09:38:54;19.00;99.90
51793;DHT22;37850;53.178;6.376;2023-07-20T09:41:21;19.10;99.90
51793;DHT22;37850;53.178;6.376;2023-07-20T09:43:47;19.10;99.90
51793;DHT22;37850;53.178;6.376;2023-07-20T09:46:13;19.20;99.90
51793;DHT22;37850;53.178;6.376;2023-07-20T09:48:39;19.30;99.90
51793;DHT22;37850;53.178;6.376;2023-07-20T09:51:07;19.30;99.90
51793;DHT22;37850;53.178;6.376;2023-07-20T09:53:33;19.30;99.90
51793;DHT22;37850;53.178;6.376;2023-07-20T09:56:00;19.30;99.90
51793;DHT22;37850;53.178;6.376;2023-07-20T09:58:27;19.30;99.90
51793;DHT22;37850;53.178;6.376;2023-07-20T10:00:55;19.40;99.90
51793;DHT22;37850;53.178;6.376;2023-07-20T10:03:29;19.50;99.90
51793;DHT22;37850;53.178;6.376;2023-07-20T10:06:10;19.50;99.90
51793;DHT22;37850;53.178;6.376;2023-07-20T10:08:41;19.60;99.90
51793;DHT22;37850;53.178;6.376;2023-07-20T10:11:08;19.70;99.90
51793;DHT22;37850;53.178;6.376;2023-07-20T10:13:38;19.70;99.90
51793;DHT22;37850;53.178;6.376;2023-07-20T10:16:12;19.70;99.90
51793;DHT22;37850;53.178;6.376;2023-07-20T10:18:51;19.70;99.90
51793;DHT22;37850;53.178;6.376;2023-07-20T10:21:20;19.80;99.90
51793;DHT22;37850;53.178;6.376;2023-07-20T10:23:48;19.80;99.90
51793;DHT22;37850;53.178;6.376;2023-07-20T10:26:14;19.80;99.90
51793;DHT22;37850;53.178;6.376;2023-07-20T10:28:44;19.70;99.90
51793;DHT22;37850;53.178;6.376;2023-07-20T10:31:12;19.70;99.90
51793;DHT22;37850;53.178;6.376;2023-07-20T10:33:38;19.80;99.90
51793;DHT22;37850;53.178;6.376;2023-07-20T10:36:05;19.80;99.90
51793;DHT22;37850;53.178;6.376;2023-07-20T10:43:55;20.10;99.90
51793;DHT22;37850;53.178;6.376;2023-07-20T10:49:08;20.10;99.90
51793;DHT22;37850;53.178;6.376;2023-07-20T10:56:42;20.30;99.90
51793;DHT22;37850;53.178;6.376;2023-07-20T11:01:47;20.40;99.90
51793;DHT22;37850;53.178;6.376;2023-07-20T11:04:15;20.30;99.90
51793;DHT22;37850;53.178;6.376;2023-07-20T11:06:44;20.30;99.90
51793;DHT22;37850;53.178;6.376;2023-07-20T11:09:13;20.30;99.90
51793;DHT22;37850;53.178;6.376;2023-07-20T11:11:41;20.20;99.90
51793;DHT22;37850;53.178;6.376;2023-07-20T11:14:21;20.20;99.90
51793;DHT22;37850;53.178;6.376;2023-07-20T11:16:48;20.20;99.90
51793;DHT22;37850;53.178;6.376;2023-07-20T11:19:25;20.20;99.90
51793;DHT22;37850;53.178;6.376;2023-07-20T11:21:56;20.20;99.90
51793;DHT22;37850;53.178;6.376;2023-07-20T11:24:23;20.20;99.90
51793;DHT22;37850;53.178;6.376;2023-07-20T11:26:53;20.20;99.90
51793;DHT22;37850;53.178;6.376;2023-07-20T11:29:21;20.20;99.90
51793;DHT22;37850;53.178;6.376;2023-07-20T11:31:48;20.10;99.90
51793;DHT22;37850;53.178;6.376;2023-07-20T11:34:19;20.20;99.90
51793;DHT22;37850;53.178;6.376;2023-07-20T11:36:50;20.10;99.90
51793;DHT22;37850;53.178;6.376;2023-07-20T11:39:17;20.20;99.90
51793;DHT22;37850;53.178;6.376;2023-07-20T11:41:52;20.20;99.90
51793;DHT22;37850;53.178;6.376;2023-07-20T11:44:19;20.30;99.90
51793;DHT22;37850;53.178;6.376;2023-07-20T11:47:12;20.30;99.90
51793;DHT22;37850;53.178;6.376;2023-07-20T11:49:42;20.30;99.90
51793;DHT22;37850;53.178;6.376;2023-07-20T11:52:13;20.20;99.90
51793;DHT22;37850;53.178;6.376;2023-07-20T11:54:42;20.20;99.90
51793;DHT22;37850;53.178;6.376;2023-07-20T11:57:19;20.20;99.90
51793;DHT22;37850;53.178;6.376;2023-07-20T11:59:55;20.20;99.90
51793;DHT22;37850;53.178;6.376;2023-07-20T12:02:23;20.20;99.90
51793;DHT22;37850;53.178;6.376;2023-07-20T12:04:51;20.20;99.90
51793;DHT22;37850;53.178;6.376;2023-07-20T12:07:18;20.20;99.90
51793;DHT22;37850;53.178;6.376;2023-07-20T12:10:02;20.20;99.90
51793;DHT22;37850;53.178;6.376;2023-07-20T12:12:28;20.20;99.90
51793;DHT22;37850;53.178;6.376;2023-07-20T12:14:54;20.10;99.90
51793;DHT22;37850;53.178;6.376;2023-07-20T12:17:19;20.00;99.90
51793;DHT22;37850;53.178;6.376;2023-07-20T12:19:45;19.90;99.90
51793;DHT22;37850;53.178;6.376;2023-07-20T12:22:11;19.90;99.90
51793;DHT22;37850;53.178;6.376;2023-07-20T12:24:37;19.70;99.90
51793;DHT22;37850;53.178;6.376;2023-07-20T12:27:04;19.60;99.90
51793;DHT22;37850;53.178;6.376;2023-07-20T12:29:30;19.60;99.90
51793;DHT22;37850;53.178;6.376;2023-07-20T12:31:57;19.50;99.90
51793;DHT22;37850;53.178;6.376;2023-07-20T12:34:22;19.50;99.90
51793;DHT22;37850;53.178;6.376;2023-07-20T12:36:48;19.40;99.90
51793;DHT22;37850;53.178;6.376;2023-07-20T12:39:14;19.50;99.90
51793;DHT22;37850;53.178;6.376;2023-07-20T12:41:40;19.40;99.90
51793;DHT22;37850;53.178;6.376;2023-07-20T12:44:06;19.50;99.90
51793;DHT22;37850;53.178;6.376;2023-07-20T12:46:31;19.60;99.90
51793;DHT22;37850;53.178;6.376;2023-07-20T12:49:00;19.70;99.90
51793;DHT22;37850;53.178;6.376;2023-07-20T12:51:26;19.70;99.90
51793;DHT22;37850;53.178;6.376;2023-07-20T12:53:51;19.70;99.90
51793;DHT22;37850;53.178;6.376;2023-07-20T12:56:17;19.70;99.90
51793;DHT22;37850;53.178;6.376;2023-07-20T12:58:44;19.70;99.90
51793;DHT22;37850;53.178;6.376;2023-07-20T13:01:10;19.70;99.90
51793;DHT22;37850;53.178;6.376;2023-07-20T13:03:35;19.60;99.90
51793;DHT22;37850;53.178;6.376;2023-07-20T13:06:01;19.60;99.90
51793;DHT22;37850;53.178;6.376;2023-07-20T13:08:27;19.60;99.90
51793;DHT22;37850;53.178;6.376;2023-07-20T13:10:53;19.60;99.90
51793;DHT22;37850;53.178;6.376;2023-07-20T13:13:18;19.60;99.90
51793;DHT22;37850;53.178;6.376;2023-07-20T13:15:45;19.60;99.90
51793;DHT22;37850;53.178;6.376;2023-07-20T13:18:12;19.60;99.90
51793;DHT22;37850;53.178;6.376;2023-07-20T13:20:37;19.60;99.90
51793;DHT22;37850;53.178;6.376;2023-07-20T13:23:04;19.70;99.90
51793;DHT22;37850;53.178;6.376;2023-07-20T13:25:30;19.60;99.90
51793;DHT22;37850;53.178;6.376;2023-07-20T13:27:56;19.60;99.90
51793;DHT22;37850;53.178;6.376;2023-07-20T13:30:22;19.60;99.90
51793;DHT22;37850;53.178;6.376;2023-07-20T13:32:48;19.50;99.90
51793;DHT22;37850;53.178;6.376;2023-07-20T13:35:14;19.50;99.90
51793;DHT22;37850;53.178;6.376;2023-07-20T13:37:41;19.40;99.90
51793;DHT22;37850;53.178;6.376;2023-07-20T13:40:09;19.40;99.90
51793;DHT22;37850;53.178;6.376;2023-07-20T13:42:39;19.40;99.90
51793;DHT22;37850;53.178;6.376;2023-07-20T13:45:06;19.30;99.90
51793;DHT22;37850;53.178;6.376;2023-07-20T13:47:32;19.20;99.90
51793;DHT22;37850;53.178;6.376;2023-07-20T13:49:58;19.10;99.90
51793;DHT22;37850;53.178;6.376;2023-07-20T13:52:24;19.10;99.90
51793;DHT22;37850;53.178;6.376;2023-07-20T13:54:50;19.00;99.90
51793;DHT22;37850;53.178;6.376;2023-07-20T13:57:15;19.00;99.90
51793;DHT22;37850;53.178;6.376;2023-07-20T13:59:41;19.00;99.90
51793;DHT22;37850;53.178;6.376;2023-07-20T14:02:07;19.10;99.90
51793;DHT22;37850;53.178;6.376;2023-07-20T14:04:33;19.10;99.90
51793;DHT22;37850;53.178;6.376;2023-07-20T14:06:59;19.10;99.90
51793;DHT22;37850;53.178;6.376;2023-07-20T14:09:24;19.10;99.90
51793;DHT22;37850;53.178;6.376;2023-07-20T14:11:50;19.10;99.90
51793;DHT22;37850;53.178;6.376;2023-07-20T14:14:16;19.10;99.90
51793;DHT22;37850;53.178;6.376;2023-07-20T14:16:42;19.10;99.90
51793;DHT22;37850;53.178;6.376;2023-07-20T14:19:08;19.10;99.90
51793;DHT22;37850;53.178;6.376;2023-07-20T14:21:33;19.20;99.90
51793;DHT22;37850;53.178;6.376;2023-07-20T14:23:59;19.20;99.90
51793;DHT22;37850;53.178;6.376;2023-07-20T14:26:25;19.20;99.90
51793;DHT22;37850;53.178;6.376;2023-07-20T14:28:51;19.20;99.90
51793;DHT22;37850;53.178;6.376;2023-07-20T14:31:17;19.20;99.90
51793;DHT22;37850;53.178;6.376;2023-07-20T14:33:42;19.20;99.90
51793;DHT22;37850;53.178;6.376;2023-07-20T14:36:08;19.20;99.90
51793;DHT22;37850;53.178;6.376;2023-07-20T14:38:34;19.20;99.90
51793;DHT22;37850;53.178;6.376;2023-07-20T14:41:00;19.20;99.90
51793;DHT22;37850;53.178;6.376;2023-07-20T14:43:26;19.20;99.90
51793;DHT22;37850;53.178;6.376;2023-07-20T14:45:52;19.20;99.90
51793;DHT22;37850;53.178;6.376;2023-07-20T14:48:17;19.20;99.90
51793;DHT22;37850;53.178;6.376;2023-07-20T14:50:43;19.30;99.90
51793;DHT22;37850;53.178;6.376;2023-07-20T14:53:13;19.30;99.90
51793;DHT22;37850;53.178;6.376;2023-07-20T14:55:39;19.30;99.90
51793;DHT22;37850;53.178;6.376;2023-07-20T14:58:05;19.30;99.90
51793;DHT22;37850;53.178;6.376;2023-07-20T15:00:31;19.30;99.90
51793;DHT22;37850;53.178;6.376;2023-07-20T15:02:57;19.30;99.90
51793;DHT22;37850;53.178;6.376;2023-07-20T15:05:23;19.30;99.90
51793;DHT22;37850;53.178;6.376;2023-07-20T15:07:50;19.30;99.90
51793;DHT22;37850;53.178;6.376;2023-07-20T15:10:16;19.30;99.90
51793;DHT22;37850;53.178;6.376;2023-07-20T15:12:42;19.30;99.90
51793;DHT22;37850;53.178;6.376;2023-07-20T15:15:09;19.30;99.90
51793;DHT22;37850;53.178;6.376;2023-07-20T15:17:36;19.20;99.90
51793;DHT22;37850;53.178;6.376;2023-07-20T15:20:03;19.20;99.90
51793;DHT22;37850;53.178;6.376;2023-07-20T15:22:33;19.20;99.90
51793;DHT22;37850;53.178;6.376;2023-07-20T15:25:02;19.20;99.90
51793;DHT22;37850;53.178;6.376;2023-07-20T15:27:28;19.20;99.90
51793;DHT22;37850;53.178;6.376;2023-07-20T15:29:54;19.30;99.90
51793;DHT22;37850;53.178;6.376;2023-07-20T15:32:19;19.20;99.90
51793;DHT22;37850;53.178;6.376;2023-07-20T15:34:46;19.30;99.90
51793;DHT22;37850;53.178;6.376;2023-07-20T15:37:13;19.30;99.90
51793;DHT22;37850;53.178;6.376;2023-07-20T15:39:39;19.30;99.90
51793;DHT22;37850;53.178;6.376;2023-07-20T15:42:05;19.30;99.90
51793;DHT22;37850;53.178;6.376;2023-07-20T15:44:31;19.40;99.90
51793;DHT22;37850;53.178;6.376;2023-07-20T15:46:57;19.40;99.90
51793;DHT22;37850;53.178;6.376;2023-07-20T15:49:23;19.50;99.90
51793;DHT22;37850;53.178;6.376;2023-07-20T15:51:53;19.60;99.90
51793;DHT22;37850;53.178;6.376;2023-07-20T15:54:19;19.60;99.90